Time;durP1;ratioP1;P1;durP2;ratioP2;P2;SDS_P1;SDS_P2;PMS_P1;PMS_P2;Temp;Humidity;BMP_temperature;BMP_pressure;BME280_temperature;BME280_humidity;BME280_pressure;Samples;Min_cycle;Max_cycle;Signal;HPM_P1;HPM_P2
2022/07/16 00:07:26;;;;;;;4.40;1.97;;;;;;;15.02;79.83;98094.47;18494102;32;20449;-63
2022/07/16 00:17:28;;;;;;;3.43;2.00;;;;;;;14.85;80.42;98106.59;18481240;32;20341;-62
2022/07/16 00:27:30;;;;;;;3.17;2.20;;;;;;;14.73;81.50;98093.41;18505264;32;20131;-62
2022/07/16 00:37:33;;;;;;;3.67;2.20;;;;;;;14.71;82.14;98116.56;18490318;32;20065;-63
2022/07/16 00:47:35;;;;;;;3.37;1.93;;;;;;;14.51;82.21;98118.34;18504242;32;20061;-63
2022/07/16 00:57:37;;;;;;;3.10;2.10;;;;;;;14.41;83.61;98123.84;18503275;32;20084;-63
2022/07/16 01:07:40;;;;;;;2.53;2.10;;;;;;;14.31;82.81;98110.34;18488778;32;20119;-63
2022/07/16 01:17:43;;;;;;;3.60;2.87;;;;;;;14.17;82.71;98110.13;18501228;32;20065;-63
2022/07/16 01:27:45;;;;;;;2.10;1.90;;;;;;;14.00;83.10;98118.69;18501599;32;20061;-63
2022/07/16 01:37:47;;;;;;;4.03;2.37;;;;;;;13.87;83.80;98115.50;18486851;32;20400;-63
2022/07/16 01:47:50;;;;;;;3.33;2.30;;;;;;;13.76;84.51;98116.66;18500284;32;20445;-63
2022/07/16 01:57:52;;;;;;;3.70;2.10;;;;;;;13.68;84.93;98118.03;18446870;32;20099;-63
2022/07/16 02:07:54;;;;;;;4.57;2.60;;;;;;;13.59;85.83;98110.75;18434583;32;20080;-63
2022/07/16 02:17:57;;;;;;;2.90;2.30;;;;;;;13.52;85.73;98103.72;18434237;32;20053;-62
2022/07/16 02:28:09;;;;;;;5.60;2.40;;;;;;;13.40;86.71;98105.94;18444891;32;20105;-63
2022/07/16 02:38:12;;;;;;;3.87;2.57;;;;;;;13.27;87.25;98109.22;18445009;32;20065;-63
2022/07/16 02:48:14;;;;;;;3.83;2.80;;;;;;;13.19;87.91;98100.53;18431689;32;20077;-63
2022/07/16 02:58:17;;;;;;;2.53;2.30;;;;;;;13.09;87.58;98097.88;18486514;32;20060;-63
2022/07/16 03:08:20;;;;;;;3.33;2.70;;;;;;;12.97;88.39;98108.22;18495943;32;20377;-63
2022/07/16 03:18:22;;;;;;;6.70;2.90;;;;;;;12.81;88.78;98113.69;18481825;32;20076;-63
2022/07/16 03:28:25;;;;;;;3.13;2.80;;;;;;;12.71;88.55;98129.97;18493886;32;20118;-63
2022/07/16 03:48:48;;;;;;;4.60;2.70;;;;;;;12.48;89.79;98134.84;18494888;32;20113;-63
2022/07/16 03:58:51;;;;;;;4.60;2.70;;;;;;;12.43;90.04;98140.28;18438581;32;20147;-63
2022/07/16 04:08:53;;;;;;;5.23;3.03;;;;;;;12.34;89.24;98145.41;18442552;32;20073;-63
2022/07/16 04:18:55;;;;;;;3.27;2.70;;;;;;;12.25;88.93;98155.19;18453125;32;20061;-63
2022/07/16 04:28:58;;;;;;;3.97;2.47;;;;;;;12.27;89.23;98157.63;18439765;32;20102;-64
2022/07/16 04:39:00;;;;;;;4.27;3.10;;;;;;;12.36;90.17;98158.69;18439093;32;20062;-64
2022/07/16 04:49:02;;;;;;;2.87;2.40;;;;;;;12.55;89.50;98167.13;18439689;32;20104;-63
2022/07/16 04:59:05;;;;;;;4.07;2.67;;;;;;;12.80;89.14;98174.47;18498607;32;20460;-63
2022/07/16 05:09:07;;;;;;;2.80;2.13;;;;;;;13.13;88.78;98174.97;18502229;32;20049;-64
2022/07/16 05:19:09;;;;;;;4.63;2.10;;;;;;;13.51;87.09;98171.91;18502232;32;20057;-64
2022/07/16 05:29:12;;;;;;;3.20;2.50;;;;;;;13.90;85.65;98191.06;18501489;32;20106;-64
2022/07/16 05:39:14;;;;;;;3.13;2.53;;;;;;;14.31;83.90;98198.19;18486841;32;20495;-63
2022/07/16 05:49:17;;;;;;;2.20;1.77;;;;;;;14.66;81.83;98207.25;18500300;32;20058;-63
2022/07/16 05:59:19;;;;;;;2.83;2.03;;;;;;;15.08;79.58;98211.22;18499785;32;20065;-63
2022/07/16 06:09:21;;;;;;;3.00;2.17;;;;;;;15.46;78.31;98210.63;18499078;32;20087;-63
2022/07/16 06:19:24;;;;;;;4.68;2.75;;;;;;;15.96;74.80;98217.72;18498668;32;20470;-64
2022/07/16 06:29:26;;;;;;;3.87;2.50;;;;;;;16.45;73.62;98232.87;18497848;32;20117;-63
2022/07/16 06:39:28;;;;;;;3.83;2.33;;;;;;;16.92;69.40;98231.13;18497387;32;20061;-63
2022/07/16 06:49:31;;;;;;;6.70;2.53;;;;;;;17.39;66.32;98228.41;18496900;32;20100;-63
2022/07/16 06:59:33;;;;;;;2.47;1.75;;;;;;;17.98;63.25;98235.25;18481951;32;20061;-63
2022/07/16 07:09:36;;;;;;;4.90;2.10;;;;;;;18.54;64.10;98239.53;18496813;32;20417;-63
2022/07/16 07:19:38;;;;;;;3.20;1.98;;;;;;;18.98;60.01;98244.56;18481325;32;20365;-63
2022/07/16 07:29:40;;;;;;;3.33;2.40;;;;;;;19.40;59.15;98242.44;18499022;32;20637;-63
2022/07/16 07:39:43;;;;;;;4.60;2.28;;;;;;;19.66;56.99;98250.78;18493980;32;20081;-63
2022/07/16 07:49:45;;;;;;;2.33;1.80;;;;;;;19.97;55.41;98239.00;18507577;32;20342;-63
2022/07/16 07:59:47;;;;;;;4.43;2.22;;;;;;;20.59;56.22;98242.66;18441425;32;20480;-63
2022/07/16 08:09:50;;;;;;;3.85;2.33;;;;;;;21.06;54.85;98244.78;18440663;32;20077;-63
2022/07/16 08:19:54;;;;;;;3.65;2.40;;;;;;;21.52;53.12;98254.25;18441511;32;20065;-63
2022/07/16 08:29:56;;;;;;;3.42;2.20;;;;;;;21.85;51.27;98261.13;18439527;32;20081;-63
2022/07/16 08:39:59;;;;;;;3.42;2.40;;;;;;;22.07;51.79;98266.38;18450988;32;20407;-63
2022/07/16 08:50:06;;;;;;;3.80;2.20;;;;;;;22.32;49.65;98255.53;18439445;32;20057;-64
2022/07/16 09:00:11;;;;;;;3.65;2.12;;;;;;;22.64;47.79;98262.31;18489730;32;20071;-64
2022/07/16 09:10:19;;;;;;;3.30;2.30;;;;;;;23.02;46.03;98249.50;18502990;32;20409;-63
2022/07/16 09:20:31;;;;;;;3.25;2.28;;;;;;;23.34;46.34;98245.19;18487975;32;20053;-63
2022/07/16 09:30:37;;;;;;;3.47;1.90;;;;;;;23.71;44.99;98257.44;18501610;32;20045;-63
2022/07/16 09:40:49;;;;;;;4.28;1.95;;;;;;;24.19;46.60;98262.22;18486938;32;20057;-63
2022/07/16 09:50:55;;;;;;;6.68;2.33;;;;;;;24.51;44.78;98259.66;18485563;32;20084;-64
2022/07/16 10:00:59;;;;;;;4.85;2.00;;;;;;;24.53;40.43;98259.31;18499950;32;20060;-64
2022/07/16 10:11:01;;;;;;;4.10;1.83;;;;;;;24.71;40.42;98257.13;18499520;32;20144;-64
2022/07/16 10:21:06;;;;;;;;;;;;;;;24.85;39.90;98259.50;18498746;32;20061;-64
2022/07/16 10:31:34;;;;;;;3.28;2.42;;;;;;;25.31;38.98;98251.69;18484368;32;19944;-64
2022/07/16 10:41:48;;;;;;;6.07;2.42;;;;;;;25.75;39.94;98253.66;18497275;32;20089;-64
2022/07/16 10:52:05;;;;;;;5.05;2.17;;;;;;;26.19;38.55;98255.53;18482087;32;20384;-63
2022/07/16 11:02:12;;;;;;;3.72;2.10;;;;;;;26.69;40.14;98248.31;18482316;32;20432;-64
2022/07/16 11:12:21;;;;;;;3.40;2.10;;;;;;;27.04;36.30;98246.72;18496535;32;20063;-63
2022/07/16 11:22:30;;;;;;;3.17;2.15;;;;;;;27.27;36.79;98235.66;18481591;32;20057;-63
2022/07/16 11:32:33;;;;;;;2.55;2.05;;;;;;;27.80;37.82;98237.00;18495508;32;20070;-63
2022/07/16 11:42:36;;;;;;;5.62;2.53;;;;;;;28.09;37.73;98224.38;18493605;32;20045;-63
2022/07/16 11:52:46;;;;;;;6.43;2.35;;;;;;;28.36;34.94;98227.19;18480495;32;20097;-63
2022/07/16 12:02:57;;;;;;;3.92;2.00;;;;;;;28.85;36.48;98228.25;18494696;32;20072;-63
2022/07/16 12:13:08;;;;;;;1.97;1.40;;;;;;;28.82;34.41;98223.44;18495436;32;20049;-63
2022/07/16 12:23:12;;;;;;;4.33;1.73;;;;;;;29.19;32.67;98228.22;18492125;32;20433;-63
2022/07/16 12:33:24;;;;;;;2.15;1.80;;;;;;;29.23;31.60;98221.53;18503878;32;20060;-63
2022/07/16 12:43:27;;;;;;;2.28;1.48;;;;;;;29.64;31.98;98222.75;18490868;32;20059;-63
2022/07/16 12:53:29;;;;;;;2.03;1.20;;;;;;;30.12;27.28;98221.97;18503791;32;20360;-63
2022/07/16 13:03:33;;;;;;;3.28;1.62;;;;;;;29.71;26.53;98220.81;18503437;32;20100;-63
2022/07/16 13:13:38;;;;;;;2.10;1.60;;;;;;;30.61;26.23;98222.69;18502674;32;20049;-63
2022/07/16 13:23:41;;;;;;;2.40;1.40;;;;;;;31.28;28.31;98226.94;18501839;32;20077;-63
2022/07/16 13:33:46;;;;;;;1.30;0.95;;;;;;;31.70;22.41;98231.03;18500158;32;20056;-62
2022/07/16 13:43:49;;;;;;;2.05;1.45;;;;;;;31.47;24.05;98233.37;18474302;32;20083;-63
2022/07/16 13:53:51;;;;;;;1.83;1.48;;;;;;;31.72;25.42;98227.81;18485931;32;20096;-63
2022/07/16 14:03:53;;;;;;;3.80;1.40;;;;;;;32.10;25.22;98220.62;18485261;32;20124;-62
2022/07/16 14:13:56;;;;;;;1.58;1.08;;;;;;;32.06;24.48;98225.41;18484742;32;20436;-63
2022/07/16 14:23:59;;;;;;;1.60;1.15;;;;;;;32.18;22.78;98223.44;18498702;32;20084;-63
2022/07/16 14:34:01;;;;;;;1.92;1.20;;;;;;;32.55;22.12;98219.38;18471018;32;20156;-62
2022/07/16 14:44:04;;;;;;;2.53;1.55;;;;;;;33.19;24.94;98204.31;18497280;32;20097;-63
2022/07/16 14:54:07;;;;;;;1.95;1.10;;;;;;;33.00;23.05;98216.81;18496373;32;20131;-63
2022/07/16 15:04:10;;;;;;;2.25;1.35;;;;;;;32.17;23.52;98210.66;18496385;32;20061;-62
2022/07/16 15:14:16;;;;;;;2.05;1.23;;;;;;;30.54;24.81;98206.69;18495694;32;20045;-63
2022/07/16 15:24:19;;;;;;;1.90;1.35;;;;;;;29.55;25.76;98193.22;18495749;32;20050;-63
2022/07/16 15:34:22;;;;;;;2.08;1.45;;;;;;;28.95;28.19;98190.59;18495145;32;20061;-63
2022/07/16 15:44:25;;;;;;;3.35;1.35;;;;;;;28.60;26.27;98186.16;18495144;32;20046;-63
2022/07/16 15:54:27;;;;;;;1.95;1.00;;;;;;;28.11;29.12;98180.34;18502756;32;20421;-63
2022/07/16 16:04:31;;;;;;;1.87;0.98;;;;;;;27.86;28.36;98177.97;18493112;32;20045;-63
2022/07/16 16:14:33;;;;;;;4.80;1.42;;;;;;;27.60;26.91;98183.47;18492372;32;20067;-63
2022/07/16 16:24:36;;;;;;;1.45;1.02;;;;;;;27.19;29.05;98167.28;18491845;32;20042;-62
2022/07/16 16:34:39;;;;;;;1.90;1.05;;;;;;;27.03;27.05;98179.28;18505519;32;20120;-63
2022/07/16 16:44:42;;;;;;;1.60;1.10;;;;;;;27.04;27.39;98183.66;18504924;32;20492;-63
2022/07/16 16:54:45;;;;;;;3.30;1.10;;;;;;;27.20;28.04;98178.03;18503624;32;20075;-63
2022/07/16 17:04:47;;;;;;;3.78;1.30;;;;;;;27.34;26.82;98180.25;18488401;32;20053;-63
2022/07/16 17:14:56;;;;;;;1.70;0.98;;;;;;;27.04;26.29;98183.66;18502966;32;20040;-63
2022/07/16 17:24:59;;;;;;;2.28;1.10;;;;;;;26.62;27.76;98189.94;18501133;32;20068;-63
2022/07/16 17:35:02;;;;;;;2.65;1.05;;;;;;;26.18;28.07;98190.19;18500911;32;20114;-63
2022/07/16 17:45:11;;;;;;;1.58;0.88;;;;;;;25.78;29.85;98199.53;18487716;32;20053;-63
2022/07/16 17:55:14;;;;;;;0.98;0.62;;;;;;;25.58;30.03;98201.38;18485612;32;20065;-63
2022/07/16 18:05:17;;;;;;;1.92;0.88;;;;;;;25.47;31.16;98201.91;18499857;32;20372;-63
2022/07/16 18:15:20;;;;;;;1.55;0.73;;;;;;;26.47;28.74;98221.31;18484763;32;20077;-63
2022/07/16 18:25:23;;;;;;;0.90;0.60;;;;;;;25.59;29.25;98219.63;18484491;32;20064;-63
2022/07/16 18:35:26;;;;;;;0.77;0.57;;;;;;;24.66;32.31;98226.94;18498278;32;20045;-63
2022/07/16 18:45:28;;;;;;;2.92;0.80;;;;;;;24.04;33.78;98232.53;18497465;32;20053;-63
2022/07/16 18:55:30;;;;;;;1.10;0.90;;;;;;;23.60;35.79;98237.75;18482615;32;20089;-63
2022/07/16 19:05:33;;;;;;;2.10;0.90;;;;;;;23.26;36.13;98246.06;18496538;32;20068;-63
2022/07/16 19:15:35;;;;;;;1.10;0.90;;;;;;;22.79;40.87;98249.06;18495006;32;20037;-63
2022/07/16 19:25:39;;;;;;;1.67;0.80;;;;;;;22.03;45.22;98276.44;18494869;32;20048;-63
2022/07/16 19:35:42;;;;;;;2.10;0.65;;;;;;;21.41;46.22;98270.28;18481498;32;20129;-63
2022/07/16 19:45:45;;;;;;;1.33;0.80;;;;;;;20.86;47.85;98279.22;18494969;32;20075;-63
2022/07/16 20:06:08;;;;;;;1.52;0.90;;;;;;;19.95;53.46;98296.97;18480029;32;20057;-63
2022/07/16 20:16:10;;;;;;;1.12;0.85;;;;;;;19.56;54.94;98304.00;18494386;32;20469;-63
2022/07/16 20:26:13;;;;;;;1.90;1.02;;;;;;;19.23;55.09;98307.00;18479725;32;20437;-63
2022/07/16 20:36:15;;;;;;;1.60;0.63;;;;;;;18.86;55.99;98322.63;18497357;32;20053;-64
2022/07/16 20:46:19;;;;;;;1.42;0.80;;;;;;;18.57;58.15;98331.22;18504666;32;20105;-63
2022/07/16 20:56:22;;;;;;;1.58;0.88;;;;;;;18.24;60.50;98329.41;18503914;32;20080;-63
2022/07/16 21:06:24;;;;;;;1.20;1.00;;;;;;;17.97;60.96;98335.69;18502272;32;20068;-63
2022/07/16 21:16:27;;;;;;;1.55;1.00;;;;;;;17.73;61.61;98333.91;18488827;32;20105;-63
2022/07/16 21:26:30;;;;;;;3.12;1.70;;;;;;;17.45;61.25;98343.94;18502135;32;20056;-63
2022/07/16 21:36:32;;;;;;;2.85;1.50;;;;;;;17.20;62.49;98350.66;18501619;32;20476;-63
2022/07/16 21:46:35;;;;;;;1.97;1.57;;;;;;;16.91;63.45;98363.34;18500507;32;20053;-63
2022/07/16 21:56:38;;;;;;;2.00;1.17;;;;;;;16.71;65.93;98360.84;18500110;32;20053;-63
2022/07/16 22:06:40;;;;;;;3.55;1.85;;;;;;;16.47;66.31;98369.87;18485927;32;20046;-63
2022/07/16 22:16:43;;;;;;;6.27;4.00;;;;;;;16.25;66.07;98378.59;18484908;32;20373;-63
2022/07/16 22:26:47;;;;;;;5.60;3.28;;;;;;;16.07;67.81;98388.34;18498610;32;20056;-63
2022/07/16 22:36:49;;;;;;;5.33;2.97;;;;;;;15.85;69.07;98389.62;18498255;32;20403;-63
2022/07/16 22:46:52;;;;;;;6.83;2.97;;;;;;;15.69;71.28;98402.56;18497926;32;20053;-63
2022/07/16 22:56:54;;;;;;;4.83;2.70;;;;;;;15.54;71.17;98395.34;18496101;32;20064;-64
2022/07/16 23:06:56;;;;;;;5.53;3.03;;;;;;;15.31;72.20;98383.22;18482008;32;20049;-64
2022/07/16 23:16:58;;;;;;;5.27;2.70;;;;;;;15.18;72.17;98392.03;18496185;32;20084;-64
2022/07/16 23:27:01;;;;;;;4.53;2.30;;;;;;;14.99;73.88;98394.59;18495325;32;20068;-63
2022/07/16 23:37:03;;;;;;;4.30;2.37;;;;;;;14.80;74.63;98406.16;18481472;32;20046;-63
2022/07/16 23:47:06;;;;;;;3.63;2.10;;;;;;;14.63;75.56;98408.41;18495031;32;20053;-63
2022/07/16 23:57:08;;;;;;;2.90;1.83;;;;;;;14.44;75.69;98408.97;18479870;32;20050;-64
